Time;durP1;ratioP1;P1;durP2;ratioP2;P2;SDS_P1;SDS_P2;PMS_P1;PMS_P2;Temp;Humidity;BMP_temperature;BMP_pressure;BME280_temperature;BME280_humidity;BME280_pressure;Samples;Min_cycle;Max_cycle;Signal;HPM_P1;HPM_P2
2023/04/01 00:00:24;;;;;;;26.65;7.28;;;;;;;-142.75;100.00;75210.31;5031603;28;20100;-65
2023/04/01 00:02:50;;;;;;;27.77;7.18;;;;;;;-142.75;100.00;75208.34;5031765;28;20080;-65
2023/04/01 00:05:16;;;;;;;30.13;7.95;;;;;;;-142.75;100.00;75224.09;5031951;28;20060;-66
2023/04/01 00:07:42;;;;;;;31.33;7.75;;;;;;;-142.75;100.00;75226.06;5031925;28;20049;-65
2023/04/01 00:10:10;;;;;;;34.25;8.63;;;;;;;-142.75;100.00;75224.09;5031757;28;20026;-65
2023/04/01 00:12:36;;;;;;;39.13;8.90;;;;;;;-142.75;100.00;75229.97;5031844;28;20021;-67
2023/04/01 00:15:03;;;;;;;21.67;6.82;;;;;;;-142.75;100.00;75235.88;5031725;28;20095;-66
2023/04/01 00:17:28;;;;;;;28.23;6.75;;;;;;;-142.75;100.00;75241.78;5031680;28;20025;-65
2023/04/01 00:19:57;;;;;;;27.48;7.38;;;;;;;-142.75;100.00;75233.91;5031675;28;20484;-65
2023/04/01 00:22:26;;;;;;;26.13;8.00;;;;;;;-142.75;100.00;75228.00;5031665;28;20025;-65
2023/04/01 00:24:53;;;;;;;28.30;7.05;;;;;;;-142.75;100.00;75220.16;5031539;28;20047;-65
2023/04/01 00:27:19;;;;;;;33.90;8.23;;;;;;;-142.75;100.00;75216.22;5030546;28;20072;-65
2023/04/01 00:29:46;;;;;;;23.23;7.28;;;;;;;-142.75;100.00;75224.09;5031751;28;20041;-65
2023/04/01 00:32:12;;;;;;;27.55;7.72;;;;;;;-142.75;100.00;75228.00;5031668;28;20198;-66
2023/04/01 00:34:37;;;;;;;23.15;7.40;;;;;;;-142.75;100.00;75233.91;5031577;28;20029;-65
2023/04/01 00:37:03;;;;;;;28.85;7.43;;;;;;;-142.75;100.00;75237.84;5031681;28;20373;-65
2023/04/01 00:39:29;;;;;;;24.30;6.60;;;;;;;-142.75;100.00;75255.56;5031426;28;20064;-66
2023/04/01 00:41:56;;;;;;;23.45;6.50;;;;;;;-142.75;100.00;75253.59;5031560;28;20028;-66
2023/04/01 00:44:27;;;;;;;33.83;6.38;;;;;;;-142.75;100.00;75245.72;5031525;28;20048;-67
2023/04/01 00:46:53;;;;;;;20.95;6.00;;;;;;;-142.75;100.00;75239.81;5033737;28;20421;-65
2023/04/01 00:49:22;;;;;;;23.45;6.47;;;;;;;-142.75;100.00;75235.88;5035269;28;20113;-65
2023/04/01 00:51:51;;;;;;;29.25;6.90;;;;;;;-142.75;100.00;75249.66;5035446;28;20033;-65
2023/04/01 00:54:20;;;;;;;21.55;6.35;;;;;;;-142.75;100.00;75261.47;5035305;28;20515;-65
2023/04/01 00:56:55;;;;;;;28.20;6.15;;;;;;;-142.75;100.00;75259.50;5035348;28;20493;-65
2023/04/01 00:59:24;;;;;;;21.92;6.30;;;;;;;-142.75;100.00;75249.66;5034961;28;20177;-67
2023/04/01 01:01:49;;;;;;;25.98;5.75;;;;;;;-142.75;100.00;75257.53;5035173;28;20386;-65
2023/04/01 01:04:28;;;;;;;15.75;4.03;;;;;;;-142.75;100.00;75267.38;5035253;28;20033;-68
2023/04/01 01:06:56;;;;;;;15.18;4.82;;;;;;;-142.75;100.00;75261.47;5035154;28;20104;-67
2023/04/01 01:09:29;;;;;;;18.70;4.53;;;;;;;-142.75;100.00;75259.50;5035203;28;20037;-67
2023/04/01 01:12:13;;;;;;;20.65;4.10;;;;;;;-142.75;100.00;75279.19;5035209;28;20021;-66
2023/04/01 01:15:09;;;;;;;20.45;5.28;;;;;;;-142.75;100.00;75267.38;5035095;28;20492;-65
2023/04/01 01:18:15;;;;;;;13.80;4.63;;;;;;;-142.75;100.00;75271.31;5035048;28;20404;-65
2023/04/01 01:20:59;;;;;;;18.73;5.05;;;;;;;-142.75;100.00;75294.94;5035169;28;20618;-65
2023/04/01 01:23:46;;;;;;;13.98;4.70;;;;;;;-142.75;100.00;75300.81;5035036;28;20369;-65
2023/04/01 01:26:15;;;;;;;;;;;;;;;-142.75;100.00;75306.72;5035340;28;20090;-67
2023/04/01 01:29:05;;;;;;;18.02;5.35;;;;;;;-142.75;100.00;75294.94;5034929;28;19909;-65
2023/04/01 01:31:36;;;;;;;16.60;5.72;;;;;;;-142.75;100.00;75298.84;5034740;28;20044;-65
2023/04/01 01:34:14;;;;;;;12.93;4.93;;;;;;;-142.75;100.00;75285.09;5034947;28;20037;-65
2023/04/01 01:36:44;;;;;;;15.55;4.72;;;;;;;-142.75;100.00;75304.75;5034696;28;20036;-66
2023/04/01 01:39:13;;;;;;;13.57;4.15;;;;;;;-142.75;100.00;75306.72;5034727;28;20104;-63
2023/04/01 01:41:41;;;;;;;11.50;4.70;;;;;;;-142.75;100.00;75302.78;5034577;28;20047;-66
2023/04/01 01:44:10;;;;;;;14.25;4.75;;;;;;;-142.75;100.00;75306.72;5034550;28;20040;-65
2023/04/01 01:46:38;;;;;;;11.32;3.97;;;;;;;-142.75;100.00;75314.59;5034489;28;20060;-65
2023/04/01 01:49:07;;;;;;;12.07;4.07;;;;;;;-142.75;100.00;75302.78;5034561;28;20076;-66
2023/04/01 01:51:32;;;;;;;16.42;4.90;;;;;;;-142.75;100.00;75312.63;5034398;28;20087;-65
2023/04/01 01:53:58;;;;;;;14.15;4.40;;;;;;;-142.75;100.00;75322.47;5034455;28;20033;-65
2023/04/01 01:56:27;;;;;;;17.05;4.32;;;;;;;-142.75;100.00;75332.31;5034301;28;20029;-65
2023/04/01 01:59:08;;;;;;;12.30;4.60;;;;;;;-142.75;100.00;75338.22;5032888;28;20033;-65
2023/04/01 02:01:38;;;;;;;13.18;4.13;;;;;;;-142.75;100.00;75334.28;5034003;28;20033;-65
2023/04/01 02:04:04;;;;;;;12.27;4.32;;;;;;;-142.75;100.00;75332.31;5034205;28;20030;-65
2023/04/01 02:06:34;;;;;;;10.65;3.15;;;;;;;-142.75;100.00;75334.28;5034117;28;20048;-65
2023/04/01 02:09:06;;;;;;;9.95;3.38;;;;;;;-142.75;100.00;75338.22;5034066;28;20030;-64
2023/04/01 02:11:35;;;;;;;8.52;2.47;;;;;;;-142.75;100.00;75350.03;5034105;28;20512;-65
2023/04/01 02:14:06;;;;;;;10.00;3.33;;;;;;;-142.75;100.00;75352.00;5034115;28;20029;-65
2023/04/01 02:16:50;;;;;;;10.82;3.28;;;;;;;-142.75;100.00;75338.22;5033607;28;20048;-65
2023/04/01 02:19:22;;;;;;;9.70;3.38;;;;;;;-142.75;100.00;75344.13;5033828;28;20039;-66
2023/04/01 02:21:52;;;;;;;4.90;2.55;;;;;;;-142.75;100.00;75346.09;5033896;28;20033;-65
2023/04/01 02:24:22;;;;;;;8.95;3.13;;;;;;;-142.75;100.00;75355.94;5034250;28;20388;-66
2023/04/01 02:26:50;;;;;;;9.13;3.40;;;;;;;-142.75;100.00;75365.75;5033738;28;20489;-68
2023/04/01 02:29:18;;;;;;;9.90;2.97;;;;;;;-142.75;100.00;75352.00;5033566;28;20013;-65
2023/04/01 02:31:43;;;;;;;7.40;3.50;;;;;;;-142.75;100.00;75361.84;5033705;28;20033;-65
2023/04/01 02:34:09;;;;;;;8.85;3.22;;;;;;;-142.75;100.00;75365.75;5033861;28;20025;-66
2023/04/01 02:36:36;;;;;;;8.88;3.33;;;;;;;-142.75;100.00;75377.56;5033593;28;20509;-65
2023/04/01 02:39:02;;;;;;;10.60;3.22;;;;;;;-142.75;100.00;75381.50;5033539;28;20034;-66
2023/04/01 02:41:28;;;;;;;5.63;2.65;;;;;;;-142.75;100.00;75367.72;5033393;28;20033;-66
2023/04/01 02:43:54;;;;;;;8.77;3.30;;;;;;;-142.75;100.00;75375.59;5033536;28;20105;-65
2023/04/01 02:46:20;;;;;;;10.63;3.15;;;;;;;-142.75;100.00;75359.88;5032066;28;20025;-65
2023/04/01 02:48:45;;;;;;;7.03;3.22;;;;;;;-142.75;100.00;75352.00;5033362;28;20087;-65
2023/04/01 02:51:10;;;;;;;12.43;3.13;;;;;;;-142.75;100.00;75365.75;5032193;28;20025;-68
2023/04/01 02:53:36;;;;;;;9.50;2.88;;;;;;;-142.75;100.00;75361.84;5033297;28;20029;-65
2023/04/01 02:56:01;;;;;;;12.88;3.70;;;;;;;-142.75;100.00;75359.88;5033069;28;20037;-67
2023/04/01 02:58:26;;;;;;;8.55;3.60;;;;;;;-142.75;100.00;75357.91;5033005;28;20029;-66
2023/04/01 03:00:51;;;;;;;10.07;3.97;;;;;;;-142.75;100.00;75369.69;5033231;28;20123;-66
2023/04/01 03:03:17;;;;;;;8.52;4.07;;;;;;;-142.75;100.00;75369.69;5033244;28;20036;-65
2023/04/01 03:05:42;;;;;;;7.68;3.78;;;;;;;-142.75;100.00;75381.50;5032995;28;20029;-66
2023/04/01 03:08:07;;;;;;;7.63;3.70;;;;;;;-142.75;100.00;75373.63;5033016;28;20029;-68
2023/04/01 03:10:33;;;;;;;8.10;4.20;;;;;;;-142.75;100.00;75379.53;5032861;28;20075;-65
2023/04/01 03:12:58;;;;;;;7.30;3.50;;;;;;;-142.75;100.00;75381.50;5032846;28;20057;-65
2023/04/01 03:15:23;;;;;;;8.95;4.45;;;;;;;-142.75;100.00;75381.50;5032878;28;20499;-65
2023/04/01 03:17:49;;;;;;;11.20;4.40;;;;;;;-142.75;100.00;75385.44;5032829;28;20108;-65
2023/04/01 03:20:14;;;;;;;9.20;4.28;;;;;;;-142.75;100.00;75373.63;5032878;28;20025;-67
2023/04/01 03:22:40;;;;;;;11.60;5.00;;;;;;;-142.75;100.00;75377.56;5032762;28;20481;-62
2023/04/01 03:25:07;;;;;;;9.88;5.20;;;;;;;-142.75;100.00;75383.47;5032592;28;20040;-65
2023/04/01 03:27:34;;;;;;;14.00;6.25;;;;;;;-142.75;100.00;75373.63;5032609;28;20488;-67
2023/04/01 03:29:59;;;;;;;10.43;5.70;;;;;;;-142.75;100.00;75381.50;5032668;28;20477;-65
2023/04/01 03:32:25;;;;;;;14.88;6.55;;;;;;;-142.75;100.00;75385.44;5032500;28;20040;-67
2023/04/01 03:34:50;;;;;;;15.00;6.93;;;;;;;-142.75;100.00;75413.00;5032546;28;20025;-65
2023/04/01 03:37:15;;;;;;;14.82;7.25;;;;;;;-142.75;100.00;75393.31;5032530;28;20084;-65
2023/04/01 03:39:41;;;;;;;15.52;8.18;;;;;;;-142.75;100.00;75393.31;5032331;28;20033;-65
2023/04/01 03:42:06;;;;;;;23.92;8.77;;;;;;;-142.75;100.00;75393.31;5032356;28;20504;-65
2023/04/01 03:44:33;;;;;;;18.90;8.55;;;;;;;-142.75;100.00;75401.19;5032255;28;20488;-67
2023/04/01 03:46:58;;;;;;;20.88;7.90;;;;;;;-142.75;100.00;75391.34;5032432;28;20029;-65
2023/04/01 03:49:23;;;;;;;24.08;9.02;;;;;;;-142.75;100.00;75401.19;5032281;28;20032;-67
2023/04/01 03:51:49;;;;;;;18.38;7.75;;;;;;;-142.75;100.00;75385.44;5032215;28;20032;-65
2023/04/01 03:54:14;;;;;;;19.02;7.82;;;;;;;-142.75;100.00;75387.41;5032162;28;20029;-65
2023/04/01 03:56:40;;;;;;;20.20;8.45;;;;;;;-142.75;100.00;75399.22;5032037;28;20026;-65
2023/04/01 03:59:06;;;;;;;18.30;8.15;;;;;;;-142.75;100.00;75401.19;5032122;28;20114;-66
2023/04/01 04:01:32;;;;;;;19.20;8.10;;;;;;;-142.75;100.00;75405.13;5031983;28;20485;-65
2023/04/01 04:03:58;;;;;;;17.25;7.63;;;;;;;-142.75;100.00;75405.13;5032099;28;20036;-66
2023/04/01 04:06:24;;;;;;;18.95;8.52;;;;;;;-142.75;100.00;75401.19;5031922;28;20021;-66
2023/04/01 04:08:49;;;;;;;18.10;7.80;;;;;;;-142.75;100.00;75405.13;5031860;28;20029;-66
2023/04/01 04:11:15;;;;;;;27.08;9.40;;;;;;;-142.75;100.00;75416.94;5030676;28;20477;-65
2023/04/01 04:13:41;;;;;;;24.77;8.40;;;;;;;-142.75;100.00;75418.91;5031797;28;20025;-65
2023/04/01 04:16:08;;;;;;;20.60;8.98;;;;;;;-142.75;100.00;75422.84;5031692;28;20033;-65
2023/04/01 04:18:33;;;;;;;20.42;8.98;;;;;;;-142.75;100.00;75428.75;5031820;28;20026;-64
2023/04/01 04:20:59;;;;;;;27.33;8.52;;;;;;;-142.75;100.00;75438.56;5030199;28;20064;-66
2023/04/01 04:23:24;;;;;;;24.98;8.45;;;;;;;-142.75;100.00;75432.69;5031772;28;20030;-66
2023/04/01 04:25:58;;;;;;;25.10;8.80;;;;;;;-142.75;100.00;75428.75;5031813;28;20037;-68
2023/04/01 04:28:25;;;;;;;28.73;8.88;;;;;;;-142.75;100.00;75450.38;5031696;28;20493;-65
2023/04/01 04:30:50;;;;;;;27.80;8.85;;;;;;;-142.75;100.00;75440.53;5031730;28;20037;-66
2023/04/01 04:33:16;;;;;;;24.70;9.38;;;;;;;-142.75;100.00;75436.59;5031672;28;20026;-65
2023/04/01 04:35:41;;;;;;;24.23;8.13;;;;;;;-142.75;100.00;75456.28;5031582;28;20460;-66
2023/04/01 04:38:06;;;;;;;22.92;8.80;;;;;;;-142.75;100.00;75440.53;5044712;22;20140;-67
2023/04/01 04:40:32;;;;;;;23.67;8.02;;;;;;;-142.75;100.00;75460.22;5011183;28;20053;-66
2023/04/01 04:42:57;;;;;;;25.92;8.85;;;;;;;-142.75;100.00;75454.31;5011175;28;20057;-66
2023/04/01 04:45:22;;;;;;;25.83;8.80;;;;;;;-142.75;100.00;75456.28;5011804;28;20105;-66
2023/04/01 04:47:48;;;;;;;23.23;9.27;;;;;;;-142.75;100.00;75464.16;5010417;28;20500;-67
2023/04/01 04:50:13;;;;;;;20.85;8.65;;;;;;;-142.75;100.00;75466.13;5011858;28;20462;-67
2023/04/01 04:52:38;;;;;;;18.50;8.70;;;;;;;-142.75;100.00;75475.97;5011704;28;20022;-67
2023/04/01 04:55:04;;;;;;;22.70;8.98;;;;;;;-142.75;100.00;75472.03;5011639;28;20054;-67
2023/04/01 04:57:30;;;;;;;18.33;8.27;;;;;;;-142.75;100.00;75475.97;5011612;28;20474;-66
2023/04/01 04:59:55;;;;;;;18.42;8.63;;;;;;;-142.75;100.00;75479.91;5010423;28;20025;-66
2023/04/01 05:02:20;;;;;;;18.75;8.48;;;;;;;-142.75;100.00;75481.88;5011576;28;20026;-66
2023/04/01 05:04:46;;;;;;;19.75;10.13;;;;;;;-142.75;100.00;75495.66;5011580;28;20018;-66
2023/04/01 05:07:11;;;;;;;22.23;10.05;;;;;;;-142.75;100.00;75491.72;5011577;28;20037;-67
2023/04/01 05:09:36;;;;;;;19.85;9.02;;;;;;;-142.75;100.00;75509.44;5011619;28;20022;-66
2023/04/01 05:12:02;;;;;;;26.15;10.40;;;;;;;-142.75;100.00;75515.31;5011537;28;20033;-66
2023/04/01 05:14:27;;;;;;;25.92;9.88;;;;;;;-142.75;100.00;75509.44;5011465;28;20033;-66
2023/04/01 05:16:54;;;;;;;21.55;9.57;;;;;;;-142.75;100.00;75515.31;5011564;28;20489;-67
2023/04/01 05:19:19;;;;;;;23.33;9.70;;;;;;;-142.75;100.00;75501.56;5011441;28;20144;-67
2023/04/01 05:21:45;;;;;;;29.00;10.20;;;;;;;-142.75;100.00;75507.47;5011494;28;20022;-67
2023/04/01 05:24:10;;;;;;;19.05;9.70;;;;;;;-142.75;100.00;75511.41;5011547;28;20156;-67
2023/04/01 05:26:36;;;;;;;28.48;10.80;;;;;;;-142.75;100.00;75525.16;5011397;28;20388;-67
2023/04/01 05:29:03;;;;;;;26.48;10.73;;;;;;;-142.75;100.00;75519.25;5011398;28;20010;-66
2023/04/01 05:31:29;;;;;;;29.10;10.73;;;;;;;-142.75;100.00;75531.06;5011320;28;20393;-66
2023/04/01 05:33:54;;;;;;;27.33;10.48;;;;;;;-142.75;100.00;75529.09;5014792;28;20033;-67
2023/04/01 05:36:20;;;;;;;26.73;10.90;;;;;;;-142.75;100.00;75548.78;5014920;28;20025;-66
2023/04/01 05:38:46;;;;;;;23.83;10.77;;;;;;;-142.75;100.00;75542.88;5014663;28;20030;-67
2023/04/01 05:41:12;;;;;;;23.17;10.27;;;;;;;-142.75;100.00;75538.94;5013660;28;20101;-67
2023/04/01 05:43:38;;;;;;;23.30;10.20;;;;;;;-142.75;100.00;75550.75;5010026;28;20038;-66
2023/04/01 05:46:06;;;;;;;31.00;10.77;;;;;;;-142.75;100.00;75558.63;4995098;28;20030;-66
2023/04/01 05:48:34;;;;;;;25.05;9.77;;;;;;;-142.75;100.00;75548.78;4995169;28;20046;-67
2023/04/01 05:51:00;;;;;;;26.52;10.15;;;;;;;-142.75;100.00;75582.25;4995196;28;20027;-67
2023/04/01 05:53:26;;;;;;;21.33;9.27;;;;;;;-142.75;100.00;75570.44;4994920;28;20037;-67
2023/04/01 05:55:51;;;;;;;25.35;9.90;;;;;;;-142.75;100.00;75564.53;4994986;28;20036;-66
2023/04/01 05:58:16;;;;;;;21.23;9.38;;;;;;;-142.75;100.00;75578.31;4994707;28;20026;-67
2023/04/01 06:00:42;;;;;;;19.20;9.13;;;;;;;-142.75;100.00;75574.38;4994983;28;20394;-66
2023/04/01 06:03:07;;;;;;;22.02;9.82;;;;;;;-142.75;100.00;75592.09;4992336;28;20022;-67
2023/04/01 06:05:44;;;;;;;22.23;8.57;;;;;;;-142.75;100.00;75597.97;4975375;28;20026;-66
2023/04/01 06:08:15;;;;;;;24.02;10.15;;;;;;;-142.75;100.00;75584.22;4975419;28;20027;-66
2023/04/01 06:11:01;;;;;;;19.63;9.48;;;;;;;-142.75;100.00;75586.19;4975440;28;20027;-66
2023/04/01 06:13:47;;;;;;;27.30;9.25;;;;;;;-142.75;100.00;75594.06;4975344;28;20022;-67
2023/04/01 06:16:32;;;;;;;12.27;6.40;;;;;;;-142.75;100.00;75603.88;4975267;28;20550;-67
2023/04/01 06:19:17;;;;;;;20.77;8.85;;;;;;;-142.75;100.00;75605.84;4975116;28;20055;-67
2023/04/01 06:22:17;;;;;;;30.00;10.00;;;;;;;-142.75;100.00;75601.91;4973815;28;20118;-66
2023/04/01 06:25:05;;;;;;;23.15;10.00;;;;;;;-142.75;100.00;75621.59;4974609;28;20122;-67
2023/04/01 06:28:27;;;;;;;30.17;11.60;;;;;;;-142.75;100.00;75611.75;4975087;28;20033;-66
2023/04/01 06:31:02;;;;;;;27.65;10.45;;;;;;;-142.75;100.00;75613.72;4974165;28;20041;-67
2023/04/01 06:33:31;;;;;;;26.80;10.68;;;;;;;-142.75;100.00;75639.31;4974927;28;20105;-67
2023/04/01 06:36:17;;;;;;;25.30;11.05;;;;;;;-142.75;100.00;75627.50;4974802;28;20149;-67
2023/04/01 06:39:07;;;;;;;21.20;9.63;;;;;;;-142.75;100.00;75639.31;4974556;28;20121;-67
2023/04/01 06:41:57;;;;;;;20.08;8.85;;;;;;;-142.75;100.00;75657.03;4974763;28;20035;-66
2023/04/01 06:44:44;;;;;;;20.25;9.77;;;;;;;-142.75;100.00;75651.13;4974191;28;20030;-66
2023/04/01 06:47:48;;;;;;;27.02;9.73;;;;;;;-142.75;100.00;75653.09;4974711;28;20093;-66
2023/04/01 06:50:24;;;;;;;21.70;9.35;;;;;;;-142.75;100.00;75657.03;4978494;28;20544;-66
2023/04/01 06:53:11;;;;;;;19.98;7.93;;;;;;;-142.75;100.00;75666.88;4985439;28;20105;-66
2023/04/01 06:55:42;;;;;;;27.98;9.70;;;;;;;-142.75;100.00;75662.94;4982649;28;20082;-65
2023/04/01 06:58:24;;;;;;;18.50;9.30;;;;;;;-142.75;100.00;75660.97;4986704;28;20026;-64
2023/04/01 07:00:54;;;;;;;19.88;7.82;;;;;;;-142.75;100.00;75670.81;4993968;28;20054;-67
2023/04/01 07:03:49;;;;;;;21.55;8.82;;;;;;;-142.75;100.00;75682.59;4989012;28;20022;-66
2023/04/01 07:06:26;;;;;;;24.48;9.05;;;;;;;-142.75;100.00;75684.56;4989013;28;20026;-66
2023/04/01 07:08:54;;;;;;;20.60;8.55;;;;;;;-142.75;100.00;75682.59;4988050;28;20030;-67
2023/04/01 07:11:31;;;;;;;20.90;9.27;;;;;;;-142.75;100.00;75678.66;4974300;28;20023;-66
2023/04/01 07:14:14;;;;;;;20.02;8.90;;;;;;;-142.75;100.00;75684.56;5005331;28;20031;-67
2023/04/01 07:17:02;;;;;;;19.38;8.27;;;;;;;-142.75;100.00;75686.53;4984836;28;20084;-67
2023/04/01 07:19:41;;;;;;;24.83;9.32;;;;;;;-142.75;100.00;75674.72;4979504;28;20018;-66
2023/04/01 07:22:30;;;;;;;25.70;8.68;;;;;;;-142.75;100.00;75668.84;4987769;28;20045;-68
2023/04/01 07:24:57;;;;;;;23.05;8.85;;;;;;;-142.75;100.00;75668.84;4983503;28;20037;-67
2023/04/01 07:27:23;;;;;;;18.27;7.95;;;;;;;-142.75;100.00;75686.53;4982840;28;20038;-67
2023/04/01 07:29:48;;;;;;;22.20;8.32;;;;;;;-142.75;100.00;75682.59;4976738;28;20022;-67
2023/04/01 07:32:35;;;;;;;26.02;8.63;;;;;;;-142.75;100.00;75678.66;4973842;28;20038;-67
2023/04/01 07:35:06;;;;;;;17.67;8.82;;;;;;;-142.75;100.00;75688.50;4973615;28;20493;-66
2023/04/01 07:37:40;;;;;;;16.05;8.30;;;;;;;-142.75;100.00;75682.59;4981804;28;20037;-66
2023/04/01 07:40:06;;;;;;;14.57;7.18;;;;;;;-142.75;100.00;75704.25;4977085;28;20043;-67
2023/04/01 07:42:37;;;;;;;14.57;7.55;;;;;;;-142.75;100.00;75682.59;4973532;28;20027;-67
2023/04/01 07:45:08;;;;;;;14.95;6.82;;;;;;;-142.75;100.00;75696.38;4973405;28;20033;-67
2023/04/01 07:47:53;;;;;;;14.90;6.82;;;;;;;-142.75;100.00;75680.63;4975986;28;20031;-66
2023/04/01 07:50:31;;;;;;;10.77;6.32;;;;;;;-142.75;100.00;75684.56;4972700;28;20516;-66
2023/04/01 07:53:11;;;;;;;15.55;7.38;;;;;;;-142.75;100.00;75676.69;4981578;28;20034;-67
2023/04/01 07:55:50;;;;;;;12.85;6.07;;;;;;;-142.75;100.00;75674.72;4980817;28;20029;-67
2023/04/01 07:58:33;;;;;;;12.27;5.75;;;;;;;-142.75;100.00;75684.56;4992669;28;20429;-67
2023/04/01 08:01:24;;;;;;;10.57;5.35;;;;;;;-142.75;100.00;75662.94;4983303;28;20126;-67
2023/04/01 08:04:11;;;;;;;11.38;4.82;;;;;;;-142.75;100.00;75668.84;4972205;28;20038;-65
2023/04/01 08:06:45;;;;;;;12.45;6.20;;;;;;;-142.75;100.00;75682.59;4976547;28;20030;-65
2023/04/01 08:09:44;;;;;;;12.05;5.93;;;;;;;-142.75;100.00;75688.50;4983827;28;20459;-65
2023/04/01 08:12:29;;;;;;;13.27;6.05;;;;;;;-142.75;100.00;75700.31;4983131;28;20031;-65
2023/04/01 08:15:01;;;;;;;11.77;5.82;;;;;;;-142.75;100.00;75712.13;4983286;28;20042;-65
2023/04/01 08:17:47;;;;;;;11.50;5.38;;;;;;;-142.75;100.00;75712.13;4982477;28;20050;-66
2023/04/01 08:20:30;;;;;;;15.45;6.85;;;;;;;-142.75;100.00;75702.28;4991604;28;20123;-67
2023/04/01 08:23:13;;;;;;;16.13;7.10;;;;;;;-142.75;100.00;75712.13;4992320;28;20116;-66
2023/04/01 08:25:45;;;;;;;12.77;6.63;;;;;;;-142.75;100.00;75720.00;4992359;28;20402;-65
2023/04/01 08:28:20;;;;;;;19.08;6.75;;;;;;;-142.75;100.00;75720.00;4992345;28;20041;-66
2023/04/01 08:31:40;;;;;;;18.65;6.97;;;;;;;-142.75;100.00;75725.91;4984262;28;20046;-67
2023/04/01 08:34:15;;;;;;;18.70;6.82;;;;;;;-142.75;100.00;75712.13;4982016;28;20046;-67
2023/04/01 08:36:53;;;;;;;14.50;6.72;;;;;;;-142.75;100.00;75708.19;4992246;28;20029;-67
2023/04/01 08:39:29;;;;;;;20.23;7.60;;;;;;;-142.75;100.00;75694.41;4990673;28;20035;-66
2023/04/01 08:42:24;;;;;;;22.17;7.60;;;;;;;-142.75;100.00;75706.22;4989797;28;20036;-66
2023/04/01 08:44:49;;;;;;;20.25;7.97;;;;;;;-142.75;100.00;75684.56;4967242;28;20518;-67
2023/04/01 08:47:45;;;;;;;17.85;7.03;;;;;;;-142.75;100.00;75678.66;4972705;28;20066;-67
2023/04/01 08:50:40;;;;;;;19.08;6.93;;;;;;;-142.75;100.00;75676.69;4973071;28;20509;-66
2023/04/01 08:53:24;;;;;;;23.63;8.02;;;;;;;-142.75;100.00;75696.38;4976575;28;20035;-67
2023/04/01 08:56:09;;;;;;;22.15;7.70;;;;;;;-142.75;100.00;75692.44;4972525;28;20034;-67
2023/04/01 08:58:46;;;;;;;22.13;7.75;;;;;;;-142.75;100.00;75708.19;4972963;28;20023;-68
2023/04/01 09:01:27;;;;;;;17.80;6.85;;;;;;;-142.75;100.00;75721.97;4972774;28;20058;-67
2023/04/01 09:04:19;;;;;;;20.30;8.63;;;;;;;-142.75;100.00;75716.06;4972609;28;20398;-67
2023/04/01 09:07:30;;;;;;;19.38;7.85;;;;;;;-142.75;100.00;75727.88;4982549;28;20479;-67
2023/04/01 09:10:17;;;;;;;17.88;7.55;;;;;;;-142.75;100.00;75731.81;4960576;28;20113;-67
2023/04/01 09:12:54;;;;;;;21.13;6.68;;;;;;;-142.75;100.00;75749.53;4985454;28;20054;-67
2023/04/01 09:15:33;;;;;;;19.30;6.68;;;;;;;-142.75;100.00;75743.63;4985485;28;20078;-67
2023/04/01 09:18:23;;;;;;;16.85;6.55;;;;;;;-142.75;100.00;75743.63;4985277;28;20089;-68
2023/04/01 09:21:09;;;;;;;18.02;7.65;;;;;;;-142.75;100.00;75739.69;4986582;28;20158;-66
2023/04/01 09:23:56;;;;;;;;;;;;;;;-142.75;100.00;75747.56;4985065;28;20037;-67
2023/04/01 09:26:36;;;;;;;20.20;7.18;;;;;;;-142.75;100.00;75735.75;4985459;28;19910;-67
2023/04/01 09:29:37;;;;;;;23.10;7.65;;;;;;;-142.75;100.00;75727.88;4990951;28;20037;-66
2023/04/01 09:32:11;;;;;;;20.52;6.75;;;;;;;-142.75;100.00;75729.84;4992403;28;20027;-66
2023/04/01 09:35:02;;;;;;;19.55;7.15;;;;;;;-142.75;100.00;75731.81;4984458;28;20037;-66
2023/04/01 09:38:03;;;;;;;16.52;6.47;;;;;;;-142.75;100.00;75718.03;4988778;28;20035;-67
2023/04/01 09:40:45;;;;;;;18.45;7.28;;;;;;;-142.75;100.00;75741.66;4975870;28;20019;-67
2023/04/01 09:43:20;;;;;;;15.27;6.07;;;;;;;-142.75;100.00;75739.69;4974652;28;20038;-67
2023/04/01 09:45:54;;;;;;;20.70;7.50;;;;;;;-142.75;100.00;75761.34;4975729;28;20031;-67
2023/04/01 09:48:39;;;;;;;24.10;8.40;;;;;;;-142.75;100.00;75775.09;4975527;28;20031;-67
2023/04/01 09:51:22;;;;;;;16.67;6.95;;;;;;;-142.75;100.00;75771.16;4984529;28;20034;-67
2023/04/01 09:54:09;;;;;;;15.00;6.80;;;;;;;-142.75;100.00;75775.09;4995211;28;20037;-67
2023/04/01 09:57:03;;;;;;;20.70;8.40;;;;;;;-142.75;100.00;75763.28;4993804;28;20336;-67
2023/04/01 09:59:45;;;;;;;14.27;6.35;;;;;;;-142.75;100.00;75775.09;4976263;28;20520;-67
2023/04/01 10:02:33;;;;;;;12.45;5.07;;;;;;;-142.75;100.00;75775.09;4985598;28;20085;-67
2023/04/01 10:05:34;;;;;;;11.48;4.93;;;;;;;-142.75;100.00;75755.44;4982133;28;20030;-66
2023/04/01 10:08:08;;;;;;;14.00;5.32;;;;;;;-142.75;100.00;75771.16;4985894;28;20026;-66
2023/04/01 10:10:42;;;;;;;12.00;4.55;;;;;;;-142.75;100.00;75771.16;4975458;28;20081;-67
2023/04/01 10:13:32;;;;;;;14.00;5.03;;;;;;;-142.75;100.00;75749.53;4975335;28;20030;-67
2023/04/01 10:16:16;;;;;;;9.98;4.22;;;;;;;-142.75;100.00;75759.38;4975200;28;20045;-66
2023/04/01 10:19:02;;;;;;;11.48;4.50;;;;;;;-142.75;100.00;75763.28;4984312;28;20103;-66
2023/04/01 10:21:31;;;;;;;;;;;;;;;-142.75;100.00;75749.53;4983968;28;20554;-66
2023/04/01 10:24:15;;;;;;;12.02;4.57;;;;;;;-142.75;100.00;75767.22;4984439;28;20004;-67
2023/04/01 10:26:56;;;;;;;11.73;5.00;;;;;;;-142.75;100.00;75779.03;4985201;28;20150;-66
2023/04/01 10:29:41;;;;;;;12.38;4.57;;;;;;;-142.75;100.00;75773.13;4985155;28;20549;-66
2023/04/01 10:32:12;;;;;;;14.48;5.43;;;;;;;-142.75;100.00;75765.25;4974780;28;20522;-66
2023/04/01 10:34:56;;;;;;;12.43;5.00;;;;;;;-142.75;100.00;75755.44;4974953;28;20030;-67
2023/04/01 10:37:37;;;;;;;11.43;5.38;;;;;;;-142.75;100.00;75755.44;4986396;28;20398;-67
2023/04/01 10:40:08;;;;;;;15.68;6.45;;;;;;;-142.75;100.00;75749.53;4999257;28;20666;-67
2023/04/01 10:43:15;;;;;;;12.70;6.50;;;;;;;-142.75;100.00;75765.25;4997284;28;20038;-67
2023/04/01 10:45:51;;;;;;;18.42;6.78;;;;;;;-142.75;100.00;75761.34;4992751;28;20037;-67
2023/04/01 10:48:22;;;;;;;18.52;7.78;;;;;;;-142.75;100.00;75763.28;4994081;28;20034;-67
2023/04/01 10:51:01;;;;;;;18.23;6.93;;;;;;;-142.75;100.00;75757.41;4993431;28;20135;-67
2023/04/01 10:53:44;;;;;;;15.55;6.35;;;;;;;-142.75;100.00;75761.34;4993882;28;20560;-67
2023/04/01 10:56:25;;;;;;;13.48;6.35;;;;;;;-142.75;100.00;75755.44;4988543;28;20037;-68
2023/04/01 10:59:03;;;;;;;14.85;6.00;;;;;;;-142.75;100.00;75767.22;4985460;28;20018;-66
2023/04/01 11:01:50;;;;;;;18.55;7.07;;;;;;;-142.75;100.00;75761.34;4993252;28;20030;-67
2023/04/01 11:04:43;;;;;;;17.77;7.40;;;;;;;-142.75;100.00;75767.22;4992445;28;20059;-67
2023/04/01 11:07:30;;;;;;;18.70;7.47;;;;;;;-142.75;100.00;75775.09;4993485;28;20509;-67
2023/04/01 11:10:04;;;;;;;;;;;;;;;-142.75;100.00;75771.16;4991411;28;20034;-67
2023/04/01 11:13:03;;;;;;;11.95;5.50;;;;;;;-142.75;100.00;75779.03;4984872;28;20436;-67
2023/04/01 11:15:38;;;;;;;16.55;7.00;;;;;;;-142.75;100.00;75816.44;4990513;28;20491;-67
2023/04/01 11:18:19;;;;;;;11.95;5.03;;;;;;;-142.75;100.00;75810.53;4976003;28;20117;-67
2023/04/01 11:21:06;;;;;;;13.82;6.28;;;;;;;-142.75;100.00;75822.34;4993517;28;20030;-67
2023/04/01 11:23:31;;;;;;;;;;;;;;;-142.75;100.00;75798.72;4993578;28;20410;-67
2023/04/01 11:26:05;;;;;;;13.70;5.80;;;;;;;-142.75;100.00;75816.44;4993113;28;19914;-68
2023/04/01 11:28:59;;;;;;;18.60;6.60;;;;;;;-142.75;100.00;75814.47;4992329;28;20058;-68
2023/04/01 11:31:47;;;;;;;12.65;5.93;;;;;;;-142.75;100.00;75804.63;4989814;28;20554;-67
2023/04/01 11:34:50;;;;;;;12.85;5.80;;;;;;;-142.75;100.00;75810.53;4978056;28;20026;-68